Time;durP1;ratioP1;P1;durP2;ratioP2;P2;SDS_P1;SDS_P2;PMS_P1;PMS_P2;Temp;Humidity;BMP_temperature;BMP_pressure;BME280_temperature;BME280_humidity;BME280_pressure;Samples;Min_cycle;Max_cycle;Signal;HPM_P1;HPM_P2
2022/06/05 00:01:34;;;;;;;8.55;3.70;;;;;;;19.53;100.00;100055.16;5050010;28;20627;-93
2022/06/05 00:04:34;;;;;;;7.15;3.97;;;;;;;19.34;100.00;100037.06;5036033;28;20060;-93
2022/06/05 00:07:09;;;;;;;6.57;3.67;;;;;;;19.31;100.00;100037.28;5006339;28;20891;-93
2022/06/05 00:09:43;;;;;;;7.13;3.78;;;;;;;19.37;100.00;100041.66;5052375;28;20404;-94
2022/06/05 00:12:15;;;;;;;6.60;3.65;;;;;;;19.28;100.00;100052.34;5051958;28;20128;-93
2022/06/05 00:14:41;;;;;;;7.10;3.75;;;;;;;19.18;100.00;100057.34;5046603;28;20033;-93
2022/06/05 00:17:11;;;;;;;5.57;3.67;;;;;;;19.21;100.00;100059.16;5030231;28;20047;-93
2022/06/05 00:19:39;;;;;;;5.88;3.95;;;;;;;19.04;100.00;100049.78;5030678;28;20045;-93
2022/06/05 00:22:06;;;;;;;8.75;3.75;;;;;;;19.06;100.00;100039.59;5032055;28;20079;-94
2022/06/05 00:24:33;;;;;;;7.03;3.70;;;;;;;19.09;100.00;100046.25;5031988;28;20038;-94
2022/06/05 00:27:23;;;;;;;8.60;3.60;;;;;;;19.15;100.00;100047.09;5030234;28;20037;-94
2022/06/05 00:29:58;;;;;;;6.90;3.83;;;;;;;19.15;100.00;100041.47;5035567;28;20484;-93
2022/06/05 00:32:40;;;;;;;8.00;4.10;;;;;;;19.13;100.00;100037.63;5030969;28;20129;-93
2022/06/05 00:35:11;;;;;;;6.55;3.85;;;;;;;19.06;100.00;100039.59;5028602;28;20037;-93
2022/06/05 00:38:12;;;;;;;8.23;4.00;;;;;;;19.02;100.00;100027.00;5023452;28;20095;-93
2022/06/05 00:40:59;;;;;;;6.78;4.07;;;;;;;18.92;100.00;100034.06;5022430;28;20037;-93
2022/06/05 00:43:25;;;;;;;7.15;3.70;;;;;;;18.89;100.00;100018.97;5024556;28;20520;-93
2022/06/05 00:45:51;;;;;;;5.15;3.70;;;;;;;18.84;100.00;100005.63;5030339;28;20033;-94
2022/06/05 00:48:17;;;;;;;6.28;3.70;;;;;;;18.79;100.00;100003.53;5029303;28;20089;-93
2022/06/05 00:50:44;;;;;;;7.35;4.03;;;;;;;18.79;100.00;100014.78;5019233;28;20459;-93
2022/06/05 00:53:12;;;;;;;6.15;4.07;;;;;;;18.75;100.00;100030.31;5032930;28;20072;-93
2022/06/05 00:55:40;;;;;;;9.18;4.13;;;;;;;18.73;100.00;100025.16;5031384;28;20049;-94
2022/06/05 00:58:07;;;;;;;8.85;4.47;;;;;;;18.63;100.00;100023.78;5029917;28;20025;-92
2022/06/05 10:28:41;;;;;;;8.27;7.57;;;;;;;28.57;63.48;99999.91;5065973;28;20431;-82
2022/06/05 10:31:26;;;;;;;7.97;7.18;;;;;;;28.83;62.56;100006.72;5064209;28;20041;-83
2022/06/05 10:34:16;;;;;;;8.48;7.65;;;;;;;29.15;62.54;99999.22;5046155;28;20041;-82
2022/06/05 10:36:59;;;;;;;7.03;6.47;;;;;;;29.06;61.65;99998.97;5064794;28;20041;-83
2022/06/05 10:40:00;;;;;;;8.77;7.88;;;;;;;29.01;61.96;99997.06;5065136;28;20514;-83
2022/06/05 10:42:55;;;;;;;8.63;7.82;;;;;;;28.65;62.90;99980.72;5048295;28;20037;-83
2022/06/05 10:45:39;;;;;;;8.35;7.50;;;;;;;28.70;63.23;99971.28;5035074;28;20033;-83
2022/06/05 10:48:23;;;;;;;7.72;6.82;;;;;;;29.14;61.21;99980.53;5097246;28;20121;-84
2022/06/05 10:51:13;;;;;;;7.03;6.43;;;;;;;29.29;60.82;99976.97;5065780;28;20056;-83
2022/06/05 10:53:44;;;;;;;7.40;6.70;;;;;;;29.59;60.78;99977.00;5066366;28;20032;-83
2022/06/05 10:56:28;;;;;;;7.45;6.53;;;;;;;29.86;60.87;99988.03;5064839;28;20164;-87
2022/06/05 10:59:08;;;;;;;8.68;6.60;;;;;;;29.98;58.89;99977.75;5063978;28;20033;-86
2022/06/05 11:01:43;;;;;;;8.10;6.50;;;;;;;29.72;57.65;99967.47;5063335;28;20055;-84
2022/06/05 11:04:30;;;;;;;7.03;6.40;;;;;;;29.32;58.87;99972.97;5063606;28;20036;-86
2022/06/05 11:07:02;;;;;;;6.50;5.95;;;;;;;29.48;58.31;99971.63;5063171;28;20056;-85
2022/06/05 11:10:03;;;;;;;6.60;6.00;;;;;;;29.36;58.17;99976.19;5062109;28;20172;-86
2022/06/05 11:15:36;;;;;;;6.25;5.65;;;;;;;28.35;58.52;99969.16;5056459;28;20037;-83
2022/06/05 11:18:20;;;;;;;6.80;5.95;;;;;;;28.35;59.43;99949.19;5054526;28;20486;-83
2022/06/05 11:20:55;;;;;;;6.57;5.75;;;;;;;28.81;58.93;99944.47;5053477;28;20044;-84
2022/06/05 11:23:25;;;;;;;6.65;5.10;;;;;;;29.17;55.26;99959.41;5046498;28;20111;-84
2022/06/05 11:26:04;;;;;;;6.03;4.70;;;;;;;28.93;56.15;99973.44;5055940;28;20037;-82
2022/06/05 11:28:50;;;;;;;5.30;4.80;;;;;;;28.56;55.95;99967.00;5042491;28;20080;-82
2022/06/05 11:31:30;;;;;;;5.63;5.03;;;;;;;28.34;57.58;99956.25;5031594;28;20535;-83
2022/06/05 11:34:00;;;;;;;5.85;5.00;;;;;;;28.31;59.62;99951.66;5042798;28;20088;-86
2022/06/05 11:36:58;;;;;;;6.45;4.88;;;;;;;28.34;60.22;99955.47;5044426;28;20052;-86
2022/06/05 11:39:53;;;;;;;5.95;4.55;;;;;;;28.56;59.90;99943.41;5034176;28;20049;-84
2022/06/05 11:42:32;;;;;;;4.75;4.32;;;;;;;28.70;59.40;99939.88;5037853;28;20087;-85
2022/06/05 11:45:03;;;;;;;6.13;4.90;;;;;;;28.79;59.36;99921.44;5033834;28;20720;-86
2022/06/05 11:47:35;;;;;;;4.70;4.20;;;;;;;29.19;58.75;99933.13;5045155;28;20120;-87
2022/06/05 11:50:19;;;;;;;4.85;4.45;;;;;;;29.27;57.31;99933.91;5055713;28;20560;-84
2022/06/05 11:52:55;;;;;;;5.57;5.07;;;;;;;29.60;55.81;99927.06;5051651;28;20047;-86
2022/06/05 11:55:28;;;;;;;5.53;4.95;;;;;;;29.68;56.52;99914.88;5055854;28;20035;-86
2022/06/05 11:58:44;;;;;;;5.32;4.80;;;;;;;29.62;54.78;99918.69;5051087;28;20033;-86
2022/06/05 12:01:17;;;;;;;5.18;4.68;;;;;;;29.50;55.17;99926.13;5038239;28;20053;-86
2022/06/05 12:03:55;;;;;;;5.35;4.28;;;;;;;28.88;55.92;99920.88;5024316;28;20078;-86
2022/06/05 12:06:39;;;;;;;6.85;4.82;;;;;;;28.55;57.89;99919.06;5042798;28;20037;-86
2022/06/05 12:09:28;;;;;;;5.82;4.40;;;;;;;28.35;58.58;99909.25;5040241;28;20042;-85
2022/06/05 12:12:06;;;;;;;5.90;5.32;;;;;;;28.02;61.45;99907.38;5045890;28;20036;-82
2022/06/05 12:15:10;;;;;;;5.60;5.07;;;;;;;27.94;62.61;99913.03;5032422;28;20037;-82
2022/06/05 12:17:41;;;;;;;6.85;5.45;;;;;;;27.74;62.50;99903.19;5031221;28;20053;-82
2022/06/05 12:20:18;;;;;;;6.10;5.30;;;;;;;27.65;63.63;99895.19;5029875;28;20469;-85
2022/06/05 12:22:51;;;;;;;5.90;5.40;;;;;;;27.35;64.38;99894.91;5028640;28;20039;-82
2022/06/05 12:25:19;;;;;;;6.45;5.20;;;;;;;27.46;65.20;99896.72;5032059;28;20039;-82
2022/06/05 12:28:13;;;;;;;7.20;6.20;;;;;;;27.39;64.98;99892.47;5030254;28;20042;-83
2022/06/05 12:31:15;;;;;;;6.75;5.90;;;;;;;27.54;63.98;99889.75;5038637;28;20044;-83
2022/06/05 12:33:50;;;;;;;7.47;5.78;;;;;;;27.41;64.43;99887.00;5037993;28;20080;-83
2022/06/05 12:36:35;;;;;;;6.72;5.90;;;;;;;27.44;66.03;99879.41;5038207;28;20033;-84
2022/06/05 12:39:06;;;;;;;6.68;6.07;;;;;;;27.63;64.86;99875.00;5037220;28;20090;-84
2022/06/05 12:41:31;;;;;;;6.35;5.75;;;;;;;27.68;62.55;99879.03;5033283;28;20146;-83
2022/06/05 12:43:57;;;;;;;7.13;5.95;;;;;;;27.79;62.36;99873.03;5043610;28;20096;-84
2022/06/05 12:46:31;;;;;;;6.10;5.15;;;;;;;27.82;60.95;99872.66;5033211;28;20029;-83
2022/06/05 12:49:23;;;;;;;6.22;5.45;;;;;;;28.09;62.49;99858.22;5040415;28;20541;-85
2022/06/05 12:52:14;;;;;;;7.40;6.40;;;;;;;28.72;61.10;99868.72;5040118;28;20056;-86
2022/06/05 12:55:09;;;;;;;7.65;6.40;;;;;;;28.64;61.57;99856.47;5035251;28;20032;-86
2022/06/05 12:57:48;;;;;;;8.00;6.63;;;;;;;28.71;61.23;99864.31;5039923;28;20454;-86
2022/06/05 13:00:23;;;;;;;7.43;6.60;;;;;;;28.21;63.45;99848.75;5027087;28;20483;-86
2022/06/05 13:02:59;;;;;;;9.38;7.05;;;;;;;27.90;63.09;99844.22;5039638;28;20048;-84
2022/06/05 13:05:39;;;;;;;7.03;6.43;;;;;;;28.14;62.35;99854.44;5045124;28;20094;-85
2022/06/05 13:08:22;;;;;;;7.75;7.05;;;;;;;27.93;63.39;99842.31;5038215;28;20037;-85
2022/06/05 13:10:50;;;;;;;8.77;6.75;;;;;;;28.22;63.09;99849.53;5038160;28;20036;-84
2022/06/05 13:13:31;;;;;;;7.40;6.70;;;;;;;27.88;62.45;99843.25;5034328;28;20427;-84
2022/06/05 13:16:15;;;;;;;7.53;6.80;;;;;;;27.53;63.84;99842.66;5039213;28;20040;-84
2022/06/05 13:18:53;;;;;;;6.97;6.35;;;;;;;27.58;65.27;99832.44;5039196;28;20486;-85
2022/06/05 13:21:36;;;;;;;7.30;6.60;;;;;;;27.78;63.81;99835.22;5038926;28;20037;-85
2022/06/05 13:24:27;;;;;;;7.82;6.82;;;;;;;28.01;63.67;99840.28;5015189;28;20128;-84
2022/06/05 13:27:24;;;;;;;9.23;6.90;;;;;;;27.96;63.33;99835.50;5041135;28;20064;-83
2022/06/05 13:29:59;;;;;;;7.43;6.70;;;;;;;28.10;62.59;99831.22;5034089;28;20223;-83
2022/06/05 13:32:30;;;;;;;8.70;7.10;;;;;;;28.05;63.09;99829.25;5034258;28;20033;-83
2022/06/05 13:35:02;;;;;;;7.77;6.97;;;;;;;27.92;63.54;99820.84;5041813;28;20059;-83
2022/06/05 13:37:35;;;;;;;8.82;6.60;;;;;;;28.03;63.89;99814.78;5035077;28;20045;-83
2022/06/05 13:40:38;;;;;;;7.35;6.65;;;;;;;27.68;63.77;99814.25;5037173;28;20394;-83
2022/06/05 13:43:04;;;;;;;7.45;6.75;;;;;;;27.53;64.55;99813.41;5038537;28;20529;-83
2022/06/05 13:45:40;;;;;;;7.30;6.60;;;;;;;27.68;65.39;99791.47;5037407;28;20033;-84
2022/06/05 13:48:13;;;;;;;7.32;6.63;;;;;;;27.97;64.29;99788.56;5041094;28;20037;-84
2022/06/05 13:51:12;;;;;;;10.75;9.70;;;;;;;28.35;63.64;99778.03;5034971;28;20456;-84
2022/06/05 13:53:43;;;;;;;8.27;7.25;;;;;;;28.33;63.43;99772.16;5038635;28;20413;-84
2022/06/05 13:56:28;;;;;;;7.88;7.18;;;;;;;28.05;63.57;99760.84;5021774;28;20402;-84
2022/06/05 13:59:11;;;;;;;8.93;7.30;;;;;;;28.19;63.55;99759.38;5037444;28;20030;-84
2022/06/05 14:02:04;;;;;;;7.80;7.10;;;;;;;28.32;64.45;99762.06;5037193;28;20487;-84
2022/06/05 14:04:32;;;;;;;8.70;7.60;;;;;;;28.49;62.53;99756.59;5035920;28;20041;-84
2022/06/05 14:07:00;;;;;;;8.32;7.63;;;;;;;28.54;62.75;99764.22;5031504;28;20029;-86
2022/06/05 14:09:33;;;;;;;8.02;7.22;;;;;;;28.45;62.55;99759.06;5037003;28;20491;-86
2022/06/05 14:11:59;;;;;;;8.45;7.57;;;;;;;28.45;62.00;99756.22;5046292;28;20554;-86
2022/06/05 14:14:54;;;;;;;8.40;7.60;;;;;;;28.46;63.09;99754.13;5037121;28;20034;-86
2022/06/05 14:17:35;;;;;;;9.07;8.27;;;;;;;28.65;63.29;99748.81;5043194;28;20082;-86
2022/06/05 14:20:15;;;;;;;8.07;7.15;;;;;;;28.26;61.99;99770.06;5040519;28;20029;-86
2022/06/05 14:22:44;;;;;;;8.18;7.38;;;;;;;28.22;63.33;99758.25;5015385;28;20033;-86
2022/06/05 14:25:23;;;;;;;8.20;7.40;;;;;;;27.94;63.39;99755.47;5038924;28;20061;-84
2022/06/05 14:28:00;;;;;;;8.18;7.38;;;;;;;27.80;65.01;99752.00;5041379;28;20502;-84
2022/06/05 14:30:28;;;;;;;8.27;7.47;;;;;;;27.95;65.30;99757.00;5037981;28;20037;-84
2022/06/05 14:32:55;;;;;;;8.82;7.93;;;;;;;28.12;64.98;99760.13;5037483;28;20387;-84
2022/06/05 14:35:33;;;;;;;9.20;8.30;;;;;;;28.09;64.98;99752.72;5039997;28;20037;-84
2022/06/05 14:38:30;;;;;;;10.23;8.55;;;;;;;28.06;64.84;99768.84;5034629;28;20040;-84
2022/06/05 14:41:17;;;;;;;9.60;8.80;;;;;;;28.02;65.87;99756.28;5038258;28;20116;-84
2022/06/05 14:44:01;;;;;;;9.05;8.23;;;;;;;27.81;64.75;99759.22;5029267;28;20056;-85
2022/06/05 14:46:34;;;;;;;9.35;8.35;;;;;;;27.72;65.98;99763.38;5029829;28;20042;-85
2022/06/05 14:49:37;;;;;;;8.95;8.25;;;;;;;27.80;66.95;99755.63;5036852;28;20033;-85
2022/06/05 14:52:21;;;;;;;10.83;8.10;;;;;;;27.81;65.62;99753.53;5035108;28;20049;-86
2022/06/05 14:57:51;;;;;;;9.77;8.52;;;;;;;27.98;65.23;99744.47;5039219;28;20049;-83
2022/06/05 15:00:21;;;;;;;9.30;8.48;;;;;;;28.25;64.74;99729.38;5031561;28;20490;-82
2022/06/05 15:02:56;;;;;;;9.80;8.88;;;;;;;28.70;63.52;99722.97;5038924;28;20112;-87
2022/06/05 15:05:33;;;;;;;9.18;8.27;;;;;;;29.23;60.53;99727.84;5041532;28;20116;-86
2022/06/05 15:08:07;;;;;;;8.15;7.45;;;;;;;29.43;59.01;99729.75;5038909;28;20395;-86
2022/06/05 15:10:38;;;;;;;9.98;7.97;;;;;;;29.54;58.53;99728.56;5040227;28;20033;-84
2022/06/05 15:13:13;;;;;;;9.52;7.90;;;;;;;29.06;59.45;99739.88;5033392;28;20135;-84
2022/06/05 15:15:46;;;;;;;9.75;8.75;;;;;;;28.48;61.51;99751.44;5028811;28;20040;-83
2022/06/05 15:18:12;;;;;;;10.70;9.63;;;;;;;28.37;63.21;99749.72;5044379;28;20045;-83
2022/06/05 15:20:53;;;;;;;9.10;8.23;;;;;;;28.43;62.90;99749.56;5045366;28;20439;-83
2022/06/05 15:23:30;;;;;;;8.85;7.82;;;;;;;27.93;63.05;99742.56;5045528;28;20040;-84
2022/06/05 15:25:57;;;;;;;8.07;7.28;;;;;;;27.96;64.55;99735.72;5049618;28;20033;-81
2022/06/05 15:28:33;;;;;;;10.45;9.27;;;;;;;28.18;64.21;99735.06;5047359;28;20053;-83
2022/06/05 15:31:24;;;;;;;9.20;8.15;;;;;;;28.14;63.37;99735.44;5047920;28;20376;-83
2022/06/05 15:34:29;;;;;;;8.77;7.90;;;;;;;28.06;63.73;99719.59;5043540;28;20124;-81
2022/06/05 15:37:29;;;;;;;9.20;8.30;;;;;;;28.14;64.19;99711.84;4995031;28;20046;-83
2022/06/05 15:40:43;;;;;;;9.40;8.32;;;;;;;28.49;64.40;99690.97;5047859;28;20029;-82
2022/06/05 15:43:33;;;;;;;9.60;7.93;;;;;;;28.76;63.88;99679.19;5004612;28;20034;-82
2022/06/05 15:46:32;;;;;;;9.02;8.27;;;;;;;28.93;62.66;99693.63;4987258;28;20038;-82
2022/06/05 15:49:00;;;;;;;8.38;7.57;;;;;;;28.78;62.37;99702.22;5044909;28;20049;-82
2022/06/05 15:51:29;;;;;;;8.55;7.60;;;;;;;28.79;63.42;99693.09;5047421;28;20028;-82
2022/06/05 15:54:06;;;;;;;8.82;7.97;;;;;;;28.92;61.67;99684.31;5046041;28;20072;-83
2022/06/05 15:56:41;;;;;;;9.68;8.30;;;;;;;28.98;62.08;99678.41;5042665;28;20053;-83
2022/06/05 15:59:38;;;;;;;8.93;8.02;;;;;;;28.96;62.88;99673.25;5044637;28;20371;-83
2022/06/05 16:02:18;;;;;;;9.45;8.65;;;;;;;28.94;63.67;99667.38;5043648;28;20114;-82
2022/06/05 16:04:44;;;;;;;11.23;7.28;;;;;;;28.77;63.24;99657.88;5041070;28;20029;-82
2022/06/05 16:07:19;;;;;;;10.25;9.20;;;;;;;28.49;64.14;99662.44;5044415;28;20491;-82
2022/06/05 16:09:51;;;;;;;9.63;8.32;;;;;;;28.42;64.42;99657.50;5043005;28;20037;-83
2022/06/05 16:12:27;;;;;;;11.55;10.23;;;;;;;28.18;65.71;99643.81;5043945;28;20124;-84
2022/06/05 16:15:30;;;;;;;8.82;7.82;;;;;;;28.24;65.65;99655.78;5038098;28;20041;-82
2022/06/05 16:18:29;;;;;;;8.43;7.60;;;;;;;28.22;64.84;99662.06;5038462;28;20372;-82
2022/06/05 16:21:16;;;;;;;8.15;7.45;;;;;;;28.28;65.12;99653.31;5018992;28;20045;-82
2022/06/05 16:23:44;;;;;;;10.00;7.80;;;;;;;28.24;65.31;99658.63;5051157;28;20040;-82
2022/06/05 16:26:20;;;;;;;9.40;8.50;;;;;;;28.23;65.87;99648.53;5048340;28;20108;-82
2022/06/05 16:28:57;;;;;;;8.60;7.70;;;;;;;28.15;66.35;99639.22;5050439;28;20108;-83
2022/06/05 16:31:37;;;;;;;9.90;8.93;;;;;;;28.12;67.02;99640.38;5052849;28;20040;-83
2022/06/05 16:34:05;;;;;;;10.50;9.50;;;;;;;28.11;66.69;99653.84;5045681;28;20098;-82
2022/06/05 16:39:34;;;;;;;10.73;9.73;;;;;;;27.82;67.89;99661.75;5053127;28;20124;-83
2022/06/05 16:42:24;;;;;;;10.07;9.23;;;;;;;27.68;68.42;99643.31;5051239;28;20077;-82
2022/06/05 16:45:01;;;;;;;11.55;10.30;;;;;;;27.34;70.61;99654.16;5043395;28;20039;-82
2022/06/05 16:47:56;;;;;;;11.20;10.15;;;;;;;27.35;70.32;99650.75;5044843;28;20034;-83
2022/06/05 16:50:33;;;;;;;11.50;10.30;;;;;;;27.28;70.31;99645.03;5045070;28;20033;-83
2022/06/05 16:53:16;;;;;;;11.82;10.73;;;;;;;27.07;71.29;99635.78;5035223;28;20110;-81
2022/06/05 16:55:57;;;;;;;11.77;10.50;;;;;;;26.96;72.17;99630.44;5036491;28;20060;-83
2022/06/05 16:58:25;;;;;;;11.88;10.68;;;;;;;26.86;72.52;99621.63;5034616;28;20102;-82
2022/06/05 17:01:06;;;;;;;11.82;10.70;;;;;;;26.70;73.59;99626.44;5041728;28;20260;-82
2022/06/05 17:03:42;;;;;;;12.18;11.00;;;;;;;26.62;74.45;99631.31;5033910;28;20061;-83
2022/06/05 17:06:32;;;;;;;11.93;10.70;;;;;;;26.66;74.73;99633.81;5034774;28;20021;-81
2022/06/05 17:09:00;;;;;;;11.18;10.00;;;;;;;26.52;74.91;99633.16;5037293;28;20037;-82
2022/06/05 17:11:36;;;;;;;11.48;10.02;;;;;;;26.47;75.16;99622.69;5032052;28;20534;-82
2022/06/05 17:14:05;;;;;;;10.60;9.50;;;;;;;26.50;75.17;99626.47;5033586;28;20060;-82
2022/06/05 17:16:35;;;;;;;10.80;9.25;;;;;;;26.35;75.83;99621.44;5033628;28;20066;-83
2022/06/05 17:19:46;;;;;;;10.18;9.15;;;;;;;26.33;75.37;99621.22;5040220;28;20040;-83
2022/06/05 17:22:12;;;;;;;9.85;8.70;;;;;;;26.24;75.77;99601.84;5041748;28;20056;-84
2022/06/05 17:25:03;;;;;;;9.68;8.70;;;;;;;26.20;75.80;99613.56;5049414;28;20371;-84
2022/06/05 17:27:37;;;;;;;10.18;9.15;;;;;;;26.27;75.88;99606.41;5032068;28;20154;-82
2022/06/05 17:30:22;;;;;;;9.82;8.82;;;;;;;26.30;75.55;99591.06;5047953;28;20098;-82
2022/06/05 17:33:26;;;;;;;9.00;8.20;;;;;;;26.37;74.37;99593.22;5041391;28;20125;-85
2022/06/05 17:36:07;;;;;;;10.50;8.43;;;;;;;26.37;74.18;99590.38;5041741;28;20071;-83
2022/06/05 17:38:54;;;;;;;10.30;8.50;;;;;;;26.33;74.29;99590.72;5039146;28;20021;-83
2022/06/05 17:41:41;;;;;;;10.38;9.30;;;;;;;26.09;74.93;99590.31;5035066;28;20442;-84
2022/06/05 17:44:25;;;;;;;9.98;7.80;;;;;;;26.15;75.35;99593.78;5037708;28;20034;-83
2022/06/05 17:47:07;;;;;;;9.90;7.97;;;;;;;26.04;75.74;99600.50;5039744;28;20040;-82
2022/06/05 17:50:08;;;;;;;9.82;8.63;;;;;;;26.00;76.06;99600.84;5015383;28;20112;-83
2022/06/05 17:52:35;;;;;;;10.45;9.35;;;;;;;25.88;75.97;99610.94;5039682;28;20115;-83
2022/06/05 17:55:22;;;;;;;10.63;9.15;;;;;;;25.78;76.42;99624.13;5028744;28;20049;-83
2022/06/05 17:58:36;;;;;;;9.63;8.70;;;;;;;25.64;77.43;99627.56;5043282;28;20725;-84
2022/06/05 18:01:06;;;;;;;10.00;9.10;;;;;;;25.63;77.47;99638.16;5026509;28;20541;-84
2022/06/05 18:03:41;;;;;;;11.70;9.73;;;;;;;25.60;77.38;99633.56;5046322;28;20442;-84
2022/06/05 18:06:21;;;;;;;10.57;9.57;;;;;;;25.45;77.60;99636.22;5051784;28;20521;-84
2022/06/05 18:09:09;;;;;;;10.48;9.38;;;;;;;25.39;78.36;99644.09;5052618;28;20115;-84
2022/06/05 18:11:35;;;;;;;11.20;10.00;;;;;;;25.33;77.98;99640.59;5050578;28;20497;-83
2022/06/05 18:14:01;;;;;;;11.45;10.25;;;;;;;25.33;78.57;99646.28;5050151;28;20056;-83
2022/06/05 18:16:33;;;;;;;11.27;9.98;;;;;;;25.29;78.13;99640.19;5047990;28;20330;-81
2022/06/05 18:19:00;;;;;;;11.55;10.43;;;;;;;25.20;78.07;99635.72;5051031;28;20051;-82
2022/06/05 18:21:25;;;;;;;10.98;9.88;;;;;;;25.16;78.38;99643.03;5055705;28;20557;-83
2022/06/05 18:23:51;;;;;;;11.13;10.10;;;;;;;25.17;78.47;99651.00;5048058;28;20112;-83
2022/06/05 18:26:17;;;;;;;11.15;9.50;;;;;;;25.14;78.08;99640.75;5051192;28;20064;-83
2022/06/05 18:28:45;;;;;;;11.15;10.10;;;;;;;25.16;78.01;99643.03;5052315;28;20083;-83
2022/06/05 18:31:29;;;;;;;10.43;9.27;;;;;;;25.10;78.41;99645.22;5042933;28;20036;-83
2022/06/05 18:34:04;;;;;;;11.40;10.40;;;;;;;25.11;77.67;99646.78;5042915;28;20051;-82
2022/06/05 18:39:31;;;;;;;10.30;9.40;;;;;;;24.92;78.41;99658.97;5051462;28;20118;-83
2022/06/05 18:41:57;;;;;;;11.55;10.35;;;;;;;24.94;78.06;99658.44;5053364;28;20048;-83
2022/06/05 18:44:24;;;;;;;11.25;10.10;;;;;;;24.89;77.76;99647.97;5045217;28;20033;-82
2022/06/05 18:46:53;;;;;;;11.05;9.93;;;;;;;24.90;77.63;99647.44;5048951;28;20021;-82
2022/06/05 18:49:27;;;;;;;11.32;9.90;;;;;;;24.85;77.35;99650.38;5043901;28;20048;-82
2022/06/05 18:51:55;;;;;;;11.73;9.63;;;;;;;24.82;77.76;99660.72;5030220;28;20029;-84
2022/06/05 18:54:25;;;;;;;11.20;9.90;;;;;;;24.73;77.73;99641.28;5045431;28;20041;-83
2022/06/05 18:57:26;;;;;;;11.05;10.05;;;;;;;24.69;77.60;99649.34;5043950;28;20060;-83
2022/06/05 19:00:06;;;;;;;11.55;9.35;;;;;;;24.64;78.07;99661.56;5033075;28;20044;-82
2022/06/05 19:02:56;;;;;;;11.02;9.98;;;;;;;24.59;78.10;99656.75;5045018;28;20044;-83
2022/06/05 19:05:37;;;;;;;10.30;9.30;;;;;;;24.56;78.38;99677.69;5044953;28;20140;-83
2022/06/05 19:08:06;;;;;;;11.50;8.80;;;;;;;24.45;78.53;99677.88;5047556;28;20086;-82
2022/06/05 19:10:33;;;;;;;11.07;9.80;;;;;;;24.45;78.95;99672.22;5047582;28;20044;-82
2022/06/05 19:13:04;;;;;;;11.10;9.90;;;;;;;24.42;79.21;99671.25;5034349;28;20025;-83
2022/06/05 19:15:34;;;;;;;10.05;9.15;;;;;;;24.42;78.98;99668.41;5051035;28;20044;-83
2022/06/05 19:18:17;;;;;;;10.57;9.63;;;;;;;24.35;79.62;99668.25;5048192;28;20052;-84
2022/06/05 19:21:02;;;;;;;10.93;9.75;;;;;;;24.39;79.63;99665.88;5046311;28;20072;-82
2022/06/05 19:23:45;;;;;;;10.73;9.82;;;;;;;24.34;79.37;99666.75;5046198;28;20044;-83
2022/06/05 19:26:13;;;;;;;;;;;;;;;24.28;79.45;99680.22;5045487;28;20045;-83
2022/06/05 19:28:45;;;;;;;10.77;9.02;;;;;;;24.28;79.71;99680.22;5045505;28;20363;-84
2022/06/05 19:31:25;;;;;;;11.45;8.95;;;;;;;24.25;79.42;99678.50;5047398;28;20078;-83
2022/06/05 19:33:59;;;;;;;10.82;9.00;;;;;;;24.21;79.23;99686.53;5047129;28;20044;-83
2022/06/05 19:39:30;;;;;;;10.00;8.75;;;;;;;24.09;79.41;99658.34;5044475;28;20037;-84
2022/06/05 19:41:56;;;;;;;9.45;8.65;;;;;;;24.05;78.96;99652.25;5043474;28;20041;-84
2022/06/05 19:44:33;;;;;;;9.40;8.50;;;;;;;24.05;79.53;99662.81;5050698;28;20029;-83
2022/06/05 19:47:28;;;;;;;10.25;8.63;;;;;;;24.01;78.92;99665.97;5047466;28;20056;-83
2022/06/05 19:50:06;;;;;;;9.13;8.23;;;;;;;23.99;79.03;99653.63;5048844;28;20127;-83
2022/06/05 19:52:38;;;;;;;10.32;8.43;;;;;;;23.98;78.69;99652.84;5045263;28;20033;-83
2022/06/05 19:55:11;;;;;;;8.95;8.10;;;;;;;23.98;78.66;99635.13;5043099;28;20048;-81
2022/06/05 19:57:38;;;;;;;9.40;8.43;;;;;;;23.98;78.47;99635.84;5043578;28;20036;-83
2022/06/05 20:00:13;;;;;;;9.77;8.43;;;;;;;23.99;78.38;99643.06;5041440;28;20029;-83
2022/06/05 20:02:41;;;;;;;10.07;8.57;;;;;;;23.99;78.62;99656.44;5043122;28;20029;-82
2022/06/05 20:05:28;;;;;;;9.73;8.73;;;;;;;24.04;78.33;99659.22;5042797;28;20033;-83
2022/06/05 20:08:04;;;;;;;9.15;7.70;;;;;;;23.96;77.91;99652.63;5040872;28;20052;-84
2022/06/05 20:10:35;;;;;;;9.13;8.32;;;;;;;23.96;77.62;99649.81;5047656;28;20103;-84
2022/06/05 20:13:18;;;;;;;9.30;8.38;;;;;;;24.02;77.98;99647.63;5038744;28;20091;-83
2022/06/05 20:15:44;;;;;;;9.07;8.18;;;;;;;23.93;77.95;99650.91;5048400;28;20094;-83
2022/06/05 20:18:26;;;;;;;8.93;8.13;;;;;;;24.01;77.49;99645.38;5047325;28;20036;-83
2022/06/05 20:21:07;;;;;;;8.90;8.07;;;;;;;24.03;77.51;99637.84;5044219;28;20033;-84
2022/06/05 20:23:47;;;;;;;8.98;7.93;;;;;;;24.04;77.11;99645.03;5045384;28;20033;-83
2022/06/05 20:26:34;;;;;;;9.82;8.93;;;;;;;23.99;77.03;99637.38;5036222;28;20037;-84
2022/06/05 20:29:03;;;;;;;11.13;9.23;;;;;;;24.04;77.20;99639.38;5030461;28;20464;-83
2022/06/05 20:31:44;;;;;;;11.02;8.63;;;;;;;24.03;76.37;99637.84;5044587;28;20138;-83
2022/06/05 20:34:33;;;;;;;8.57;7.75;;;;;;;23.97;76.40;99644.91;5044098;28;20048;-82
2022/06/05 20:37:01;;;;;;;11.05;8.20;;;;;;;23.91;76.18;99642.16;5039248;28;20037;-83
2022/06/05 20:39:45;;;;;;;8.95;8.13;;;;;;;23.88;75.97;99631.91;5020189;28;20045;-82
2022/06/05 20:42:24;;;;;;;9.40;8.30;;;;;;;23.89;75.63;99632.69;5038148;28;20083;-82
2022/06/05 20:44:50;;;;;;;9.65;8.35;;;;;;;23.80;75.37;99635.91;5035266;28;20506;-83
2022/06/05 20:47:24;;;;;;;8.95;7.90;;;;;;;23.79;75.15;99640.03;5038796;28;20037;-83
2022/06/05 20:50:01;;;;;;;8.32;7.53;;;;;;;23.78;75.21;99633.59;5044836;28;20037;-82
2022/06/05 20:53:16;;;;;;;8.80;7.80;;;;;;;23.77;74.22;99629.25;5039139;28;20033;-83
2022/06/05 20:55:43;;;;;;;8.15;7.35;;;;;;;23.79;73.84;99623.81;5035975;28;20084;-83
2022/06/05 20:58:13;;;;;;;8.80;7.95;;;;;;;23.79;73.55;99628.69;5036870;28;20037;-83
2022/06/05 21:00:46;;;;;;;10.68;8.05;;;;;;;23.78;72.96;99618.69;5035439;28;20029;-83
2022/06/05 21:09:14;;;;;;;8.32;7.47;;;;;;;23.75;71.70;99612.03;5031937;28;20119;-83
2022/06/05 21:17:19;;;;;;;10.80;7.22;;;;;;;23.62;70.91;99580.81;5044986;28;20045;-82
2022/06/05 21:19:47;;;;;;;8.23;7.28;;;;;;;23.56;70.83;99568.81;5041591;28;20100;-82
2022/06/05 21:22:13;;;;;;;7.78;6.88;;;;;;;23.55;71.09;99565.22;5037225;28;20065;-82
2022/06/05 21:24:58;;;;;;;8.98;7.60;;;;;;;23.51;70.72;99564.00;5039167;28;20520;-83
2022/06/05 21:27:26;;;;;;;7.80;7.10;;;;;;;23.52;70.93;99560.66;5041392;28;20044;-83
2022/06/05 21:29:52;;;;;;;9.70;7.75;;;;;;;23.53;70.69;99567.09;5032896;28;20025;-82
2022/06/05 21:32:46;;;;;;;8.10;7.13;;;;;;;23.46;71.75;99573.34;5036124;28;20394;-83
2022/06/05 21:35:18;;;;;;;8.32;7.22;;;;;;;23.39;71.53;99582.44;5039417;28;20034;-83
2022/06/05 21:37:49;;;;;;;9.90;7.72;;;;;;;23.40;71.88;99586.78;5032213;28;20037;-82
2022/06/05 21:40:15;;;;;;;7.30;6.70;;;;;;;23.34;72.57;99603.84;5036618;28;20383;-82
2022/06/05 21:42:42;;;;;;;8.30;7.32;;;;;;;23.35;72.13;99601.78;5035089;28;20036;-82
2022/06/05 21:45:13;;;;;;;7.90;7.10;;;;;;;23.32;72.53;99608.53;5039016;28;20030;-82
2022/06/05 21:47:40;;;;;;;8.25;7.25;;;;;;;23.29;72.67;99615.25;5031437;28;20115;-82
2022/06/05 21:50:06;;;;;;;8.82;7.20;;;;;;;23.22;73.13;99617.38;5023384;28;20040;-82
2022/06/05 21:52:36;;;;;;;8.05;6.97;;;;;;;23.21;72.77;99613.00;5022206;28;20056;-82
2022/06/05 21:55:22;;;;;;;8.20;7.45;;;;;;;23.17;72.85;99620.31;5031545;28;20394;-82
2022/06/05 21:57:52;;;;;;;7.85;7.05;;;;;;;23.17;71.93;99625.97;5034229;28;20169;-82
2022/06/05 22:00:34;;;;;;;7.65;7.00;;;;;;;23.14;72.06;99612.84;5045686;28;20414;-82
2022/06/05 22:03:05;;;;;;;8.02;7.22;;;;;;;23.10;71.42;99616.00;5033739;28;20071;-82
2022/06/05 22:05:31;;;;;;;7.68;6.70;;;;;;;23.06;70.98;99617.59;5032114;28;20052;-82
2022/06/05 22:07:57;;;;;;;7.70;7.00;;;;;;;23.02;71.38;99617.13;5037290;28;20026;-82
2022/06/05 22:10:22;;;;;;;7.88;7.07;;;;;;;23.02;71.06;99617.91;5038448;28;20146;-82
2022/06/05 22:12:48;;;;;;;7.82;6.53;;;;;;;22.95;71.16;99604.38;5035721;28;20029;-83
2022/06/05 22:15:15;;;;;;;7.70;6.70;;;;;;;22.89;71.32;99606.47;5035184;28;20029;-83